ADDS METAR Data INFO
IDs: Format: Raw Decoded Include TAF

Data at: 1359 UTC 17 Dec 2017

KAAA 171355Z AUTO 18004KT 10SM BKN110 04/00 A3004 RMK AO2 T00400000
KAAA 171335Z AUTO 16003KT 10SM SCT120 04/00 A3003 RMK AO2 T00360000
KAAA 171315Z AUTO 16003KT 10SM CLR 04/00 A3003 RMK AO2 T00350000
KAAA 171255Z AUTO 17004KT 10SM CLR 04/00 A3003 RMK AO2 T00400000
KAAA 171235Z AUTO 17004KT 10SM CLR 04/00 A3006 RMK AO2 T00370000
KAAA 171215Z AUTO 16004KT 10SM CLR 04/00 A3005 RMK AO2 T00350000
KAAA 171155Z AUTO 15004KT 10SM CLR 04/00 A3006 RMK AO2 T00361001 10046 20035
KAAA 171135Z AUTO 12003KT 10SM CLR 04/00 A3004 RMK AO2 T00361002
KAAA 171115Z AUTO 00000KT 10SM CLR 04/00 A3005 RMK AO2 T00421001
KAAA 171055Z AUTO 19004KT 10SM CLR 04/00 A3004 RMK AO2 T00421001
KAAA 171035Z AUTO 00000KT 10SM CLR 04/00 A3006 RMK AO2 T00431001
KAAA 171015Z AUTO 21005KT 10SM CLR 05/00 A3007 RMK AO2 T00450000
KAAA 170955Z AUTO 00000KT 10SM CLR 04/00 A3006 RMK AO2 T00420000
KAAA 170935Z AUTO 20004KT 10SM CLR 05/00 A3005 RMK AO2 T00450000
KAAA 170915Z AUTO 20003KT 10SM CLR 05/00 A3005 RMK AO2 T00450000
KAAA 170855Z AUTO 20003KT 10SM CLR 05/00 A3004 RMK AO2 T00450000
KAAA 170835Z AUTO 19005KT 10SM CLR 05/00 A3005 RMK AO2 T00450000
KAAA 170815Z AUTO 20003KT 10SM CLR 05/00 A3006 RMK AO2 T00451001
KAAA 170755Z AUTO 20004KT 10SM CLR 04/00 A3005 RMK AO2 T00421001
KAAA 170735Z AUTO 20003KT 10SM CLR 04/00 A3005 RMK AO2 T00431002
KAAA 170715Z AUTO 20003KT 10SM CLR 04/00 A3004 RMK AO2 T00401003
KAAA 170655Z AUTO 20003KT 10SM CLR 04/00 A3004 RMK AO2 T00401005
KAAA 170635Z AUTO 20003KT 10SM CLR 04/00 A3004 RMK AO2 T00361005
KAAA 170615Z AUTO 20003KT 10SM CLR 04/M01 A3003 RMK AO2 T00351006
KAAA 170550Z AUTO 19004KT 10SM CLR 04/M01 A3004 RMK AO2 T00361007 10065 20031 401371012
KAAA 170535Z AUTO 20004KT 10SM CLR 04/M01 A3004 RMK AO2 T00371006
KAAA 170515Z AUTO 19007KT 10SM CLR 03/M01 A3004 RMK AO2 T00341007
KAAA 170455Z AUTO 18007KT 10SM CLR 04/M01 A3004 RMK AO2 T00361008
KAAA 170435Z AUTO 18009KT 10SM CLR 04/M01 A3004 RMK AO2 T00391008
KAAA 170415Z AUTO 18008KT 10SM CLR 04/M01 A3003 RMK AO2 T00421010
KAAA 170355Z AUTO 18008KT 10SM CLR 05/M01 A3003 RMK AO2 T00451010
KAAA 170335Z AUTO 18007KT 10SM CLR 04/M01 A3004 RMK AO2 T00421011
KAAA 170315Z AUTO 18006KT 10SM CLR 05/M01 A3003 RMK AO2 T00461012
KAAA 170255Z AUTO 18007KT 10SM CLR 05/M01 A3003 RMK AO2 T00481012
KAAA 170235Z AUTO 18006KT 10SM CLR 05/M01 A3003 RMK AO2 T00491015
KAAA 170215Z AUTO 19003KT 10SM CLR 05/M01 A3002 RMK AO2 T00511015
KAAA 170155Z AUTO 20004KT 10SM CLR 06/M01 A3002 RMK AO2 T00601013
KAAA 170135Z AUTO 19003KT 10SM CLR 06/M02 A3002 RMK AO2 T00551020
KAAA 170115Z AUTO 18005KT 10SM CLR 06/M02 A3001 RMK AO2 T00571020
KAAA 170055Z AUTO 17004KT 10SM CLR 06/M02 A3001 RMK AO2 T00591021
KAAA 170035Z AUTO 21003KT 10SM CLR 06/M02 A2999 RMK AO2 T00591020
KAAA 170015Z AUTO 00000KT 10SM CLR 06/M02 A2999 RMK AO2 T00561021
KAAA 162355Z AUTO 00000KT 10SM CLR 06/M02 A2997 RMK AO2 T00641018 10137 20060
KAAA 162335Z AUTO 00000KT 10SM CLR 07/M02 A2997 RMK AO2 T00651020
KAAA 162315Z AUTO 19003KT 10SM CLR 08/M02 A2996 RMK AO2 T00781017
KAAA 162255Z AUTO 00000KT 10SM CLR 09/M02 A2995 RMK AO2 T00851016
KAAA 162235Z AUTO 00000KT 10SM CLR 11/M01 A2995 RMK AO2 T01091013
KAAA 162215Z AUTO 22005KT 10SM CLR 12/M01 A2994 RMK AO2 T01221011
KAAA 162155Z AUTO 22003KT 10SM CLR 13/M01 A2994 RMK AO2 T01271011
KAAA 162135Z AUTO 20004KT 10SM CLR 13/M01 A2992 RMK AO2 T01311010
KAAA 162115Z AUTO 21007KT 10SM CLR 14/M01 A2992 RMK AO2 T01351010
KAAA 162055Z AUTO 20004KT 10SM CLR 14/M01 A2992 RMK AO2 T01351011
KAAA 162035Z AUTO 21006KT 10SM CLR 14/M01 A2991 RMK AO2 T01361010
KAAA 162015Z AUTO 22005KT 10SM CLR 14/M01 A2991 RMK AO2 T01361011
KAAA 161955Z AUTO 23005KT 10SM CLR 13/M01 A2991 RMK AO2 T01321011
KAAA 161935Z AUTO 22007KT 190V250 10SM CLR 13/M01 A2991 RMK AO2 T01301013
KAAA 161915Z AUTO 22005KT 10SM CLR 13/M01 A2991 RMK AO2 T01271010
KAAA 161855Z AUTO 22007G14KT 10SM CLR 12/M01 A2991 RMK AO2 T01201012
KAAA 161835Z AUTO 23007KT 190V270 10SM CLR 12/M01 A2992 RMK AO2 T01191011
KAAA 161815Z AUTO 23005KT 10SM CLR 11/M01 A2992 RMK AO2 T01111013
KAAA 161755Z AUTO 22007KT 190V280 10SM CLR 11/M01 A2993 RMK AO2 T01071015 10108 21012
KAAA 161735Z AUTO 23004KT 10SM CLR 11/M01 A2993 RMK AO2 T01051015
KAAA 161715Z AUTO 23007G15KT 170V280 10SM CLR 10/M01 A2994 RMK AO2 T01001013
KAAA 161655Z AUTO 23010G15KT 10SM CLR 09/M01 A2994 RMK AO2 T00921015
KAAA 161635Z AUTO 22010G14KT 10SM CLR 09/M02 A2995 RMK AO2 T00851018
KAAA 161615Z AUTO 22008G16KT 180V240 10SM CLR 08/M02 A2995 RMK AO2 T00761019
KAAA 161555Z AUTO 23007G16KT 190V260 10SM CLR 07/M02 A2995 RMK AO2 T00701021
KAAA 161535Z AUTO 21009G15KT 180V240 10SM CLR 07/M02 A2994 RMK AO2 T00661021
KAAA 161515Z AUTO 21007KT 140V240 10SM CLR 06/M02 A2993 RMK AO2 T00571023
KAAA 161455Z AUTO 21007KT 170V240 10SM CLR 05/M02 A2993 RMK AO2 T00461022
KAAA 161435Z AUTO 20005KT 10SM CLR 03/M02 A2993 RMK AO2 T00251023
KAAA 161415Z AUTO 19007KT 10SM CLR 01/M03 A2992 RMK AO2 T00121027
KAAA 161355Z AUTO 19008KT 10SM CLR 00/M03 A2992 RMK AO2 T00031031
KAAA 161335Z AUTO 19007KT 10SM CLR 00/M03 A2991 RMK AO2 T00001033
KAAA 161315Z AUTO 19007KT 10SM CLR 00/M03 A2991 RMK AO2 T00001033
KAAA 161255Z AUTO 18007KT 10SM CLR 00/M03 A2992 RMK AO2 T00001035
KAAA 161235Z AUTO 18006KT 10SM CLR 00/M03 A2992 RMK AO2 T10021035
KAAA 161215Z AUTO 17005KT 10SM CLR 00/M03 A2991 RMK AO2 T10051035
KAAA 161155Z AUTO 16005KT 10SM CLR M01/M04 A2991 RMK AO2 T10121037 10015 21012
KAAA 161135Z AUTO 15004KT 10SM CLR 00/M04 A2990 RMK AO2 T10031036
KAAA 161115Z AUTO 19004KT 10SM CLR 01/M03 A2991 RMK AO2 T00071033
KAAA 161055Z AUTO 19004KT 10SM CLR 01/M03 A2991 RMK AO2 T00091032
KAAA 161035Z AUTO 20005KT 10SM CLR 01/M03 A2990 RMK AO2 T00071032
KAAA 161015Z AUTO 20006KT 10SM CLR 00/M03 A2991 RMK AO2 T00021033
KAAA 160955Z AUTO 20006KT 10SM CLR 00/M03 A2991 RMK AO2 T00001035
KAAA 160930Z AUTO 20006KT 10SM CLR 00/M03 A2992 RMK AO2 T00001035
KAAA 160915Z AUTO 19010KT 10SM CLR 00/M03 A2993 RMK AO2 T00001035
KAAA 160855Z AUTO 20005KT 10SM CLR 00/M03 A2994 RMK AO2 T00001035
KAAA 160835Z AUTO 20005KT 10SM CLR 00/M04 A2993 RMK AO2 T00001036
KAAA 160815Z AUTO 19009G14KT 10SM CLR 00/M04 A2993 RMK AO2 T00011036
KAAA 160755Z AUTO 20006KT 10SM CLR 01/M03 A2994 RMK AO2 T00051035
KAAA 160735Z AUTO 19006KT 10SM CLR 01/M03 A2994 RMK AO2 T00061035
KAAA 160715Z AUTO 19006KT 10SM SCT100 01/M04 A2995 RMK AO2 T00081036
KAAA 160655Z AUTO 20006KT 10SM BKN110 01/M04 A2996 RMK AO2 T00111036
KAAA 160635Z AUTO 20006KT 10SM OVC110 02/M03 A2997 RMK AO2 T00151035
KAAA 160615Z AUTO 19005KT 10SM OVC110 02/M04 A2997 RMK AO2 T00151037
KAAA 160555Z AUTO 20005KT 10SM OVC110 01/M04 A2998 RMK AO2 T00121040 10024 21006 400351047
KAAA 160535Z AUTO 19006KT 10SM OVC100 01/M04 A2998 RMK AO2 T00111042
KAAA 160515Z AUTO 20005KT 10SM OVC100 01/M04 A2999 RMK AO2 T00101045
KAAA 160455Z AUTO 19004KT 10SM OVC110 01/M05 A2999 RMK AO2 T00051048
KAAA 160435Z AUTO 20003KT 10SM BKN110 00/M05 A3000 RMK AO2 T00001051
KAAA 160415Z AUTO 19004KT 10SM CLR M01/M06 A3000 RMK AO2 T10061056
KAAA 160355Z AUTO 20003KT 10SM CLR 00/M06 A2999 RMK AO2 T10011056
KAAA 160335Z AUTO 20004KT 10SM CLR 00/M06 A3000 RMK AO2 T10011056
KAAA 160315Z AUTO 20003KT 10SM CLR 00/M06 A3000 RMK AO2 T10021056
KAAA 160255Z AUTO 20003KT 10SM CLR 00/M06 A3000 RMK AO2 T00001056
KAAA 160235Z AUTO 20004KT 10SM CLR 01/M05 A3000 RMK AO2 T00071055
KAAA 160215Z AUTO 20004KT 10SM CLR 01/M05 A3000 RMK AO2 T00061055